Time;durP1;ratioP1;P1;durP2;ratioP2;P2;SDS_P1;SDS_P2;PMS_P1;PMS_P2;Temp;Humidity;BMP_temperature;BMP_pressure;BME280_temperature;BME280_humidity;BME280_pressure;Samples;Min_cycle;Max_cycle;Signal;HPM_P1;HPM_P2
2023/10/04 00:00:37;;;;;;;9.43;2.10;;;;;;;18.88;56.64;102523.28;5029639;28;20090;-48
2023/10/04 00:03:02;;;;;;;13.45;1.95;;;;;;;19.00;56.64;102518.06;5029098;28;20115;-42
2023/10/04 00:05:28;;;;;;;6.55;1.70;;;;;;;19.12;56.28;102524.28;5029271;28;20135;-43
2023/10/04 00:07:55;;;;;;;9.02;1.90;;;;;;;19.11;56.05;102520.75;5028961;28;20033;-43
2023/10/04 00:10:24;;;;;;;10.95;2.10;;;;;;;18.88;56.98;102523.28;5029467;28;20124;-44
2023/10/04 00:12:49;;;;;;;7.68;1.98;;;;;;;18.96;56.15;102526.88;5029284;28;20052;-46
2023/10/04 00:15:20;;;;;;;7.65;1.98;;;;;;;18.81;57.35;102529.41;5027723;28;20184;-44
2023/10/04 00:17:45;;;;;;;7.90;2.10;;;;;;;18.97;57.04;102535.66;5030046;28;20494;-44
2023/10/04 00:20:17;;;;;;;6.97;1.80;;;;;;;19.14;56.89;102528.72;5029386;28;20041;-46
2023/10/04 00:22:46;;;;;;;9.80;2.00;;;;;;;19.05;55.89;102532.19;5029315;28;20045;-42
2023/10/04 00:25:21;;;;;;;7.43;1.88;;;;;;;19.20;56.32;102534.03;5028920;28;20036;-45
2023/10/04 00:27:57;;;;;;;7.53;1.80;;;;;;;19.15;56.54;102530.44;5029300;28;20103;-45
2023/10/04 00:30:25;;;;;;;9.05;2.05;;;;;;;19.25;55.86;102539.31;5028867;28;20037;-46
2023/10/04 00:32:53;;;;;;;10.65;2.10;;;;;;;19.33;55.58;102533.16;5031114;28;20033;-44
2023/10/04 00:35:20;;;;;;;6.10;1.80;;;;;;;19.02;56.40;102533.94;5033687;28;20169;-47
2023/10/04 00:38:00;;;;;;;6.70;1.92;;;;;;;18.83;56.76;102548.81;5029219;28;20037;-45
2023/10/04 00:40:31;;;;;;;12.15;1.92;;;;;;;19.29;55.96;102539.31;5029011;28;20042;-41
2023/10/04 00:43:01;;;;;;;9.35;1.80;;;;;;;19.25;55.92;102542.84;5029445;28;20033;-45
2023/10/04 00:45:28;;;;;;;7.20;1.80;;;;;;;19.16;56.10;102547.19;5033027;28;20025;-45
2023/10/04 00:47:58;;;;;;;11.18;2.20;;;;;;;18.91;56.83;102541.78;5032524;28;20033;-43
2023/10/04 00:50:26;;;;;;;8.95;2.10;;;;;;;19.26;55.37;102543.75;5033173;28;20755;-43
2023/10/04 00:53:14;;;;;;;8.07;1.98;;;;;;;19.38;55.40;102542.03;5032833;28;20064;-44
2023/10/04 00:55:42;;;;;;;8.13;1.70;;;;;;;19.15;55.87;102556.88;5033160;28;20037;-44
2023/10/04 00:58:09;;;;;;;5.68;1.90;;;;;;;18.90;56.12;102555.91;5032631;28;20069;-44
2023/10/04 01:00:36;;;;;;;6.85;1.73;;;;;;;18.90;56.31;102557.66;5032738;28;20025;-49
2023/10/04 01:03:02;;;;;;;9.40;1.90;;;;;;;18.65;57.40;102561.91;5032088;28;20034;-44
2023/10/04 01:05:29;;;;;;;8.07;1.90;;;;;;;18.89;56.89;102548.84;5031216;28;20135;-46
2023/10/04 01:07:55;;;;;;;10.57;1.95;;;;;;;19.02;56.52;102557.72;5032456;28;20116;-45
2023/10/04 01:10:24;;;;;;;9.48;2.00;;;;;;;18.92;57.35;102567.34;5033013;28;20037;-44
2023/10/04 01:12:51;;;;;;;6.32;1.92;;;;;;;19.01;57.05;102566.53;5033092;28;20083;-43
2023/10/04 01:15:39;;;;;;;8.50;2.15;;;;;;;18.88;57.47;102572.63;5033350;28;20029;-44
2023/10/04 01:18:06;;;;;;;6.70;1.88;;;;;;;18.99;56.69;102570.91;5032600;28;20095;-45
2023/10/04 01:20:33;;;;;;;9.55;1.85;;;;;;;19.13;56.81;102569.22;5031287;28;20438;-44
2023/10/04 01:23:05;;;;;;;6.70;1.90;;;;;;;19.07;57.38;102563.91;5031587;28;20539;-43
2023/10/04 01:25:35;;;;;;;10.55;2.22;;;;;;;19.01;56.75;102575.34;5032742;28;20124;-44
2023/10/04 01:28:11;;;;;;;8.10;1.63;;;;;;;18.91;56.51;102564.69;5036761;28;20045;-45
2023/10/04 01:30:37;;;;;;;8.43;2.00;;;;;;;19.04;56.26;102548.91;5032426;28;20405;-45
2023/10/04 01:33:07;;;;;;;8.65;2.03;;;;;;;19.07;56.61;102555.09;5031942;28;20038;-44
2023/10/04 01:35:33;;;;;;;6.90;1.98;;;;;;;19.03;56.95;102556.81;5032390;28;20483;-43
2023/10/04 01:37:58;;;;;;;5.05;1.52;;;;;;;19.15;56.46;102548.94;5031549;28;20083;-47
2023/10/04 01:40:28;;;;;;;10.23;2.10;;;;;;;18.86;58.11;102559.38;5031636;28;20033;-46
2023/10/04 01:42:57;;;;;;;10.57;2.10;;;;;;;18.80;57.63;102562.00;5031484;28;20373;-42
2023/10/04 01:45:23;;;;;;;8.32;1.92;;;;;;;18.71;57.63;102563.69;5031666;28;20583;-44
2023/10/04 01:47:49;;;;;;;10.88;2.10;;;;;;;19.00;57.22;102556.81;5031877;28;20030;-46
2023/10/04 01:50:15;;;;;;;9.35;2.10;;;;;;;18.77;57.18;102563.75;5031162;28;20049;-45
2023/10/04 01:52:47;;;;;;;8.38;1.80;;;;;;;19.13;55.95;102557.78;5031438;28;20068;-45
2023/10/04 01:55:16;;;;;;;8.27;1.80;;;;;;;19.28;55.48;102552.53;5030718;28;20092;-44
2023/10/04 01:57:43;;;;;;;9.57;1.88;;;;;;;19.07;56.43;102548.06;5031544;28;20112;-43
2023/10/04 02:00:10;;;;;;;8.73;2.10;;;;;;;19.10;56.27;102550.69;5031333;28;20057;-44
2023/10/04 02:02:38;;;;;;;7.93;1.80;;;;;;;19.00;56.71;102548.91;5031340;28;20037;-46
2023/10/04 02:05:10;;;;;;;10.57;1.83;;;;;;;18.93;57.45;102553.25;5031081;28;20446;-44
2023/10/04 02:07:40;;;;;;;8.10;1.80;;;;;;;18.78;58.01;102554.94;5031240;28;20070;-43
2023/10/04 02:10:09;;;;;;;7.80;1.70;;;;;;;18.93;57.82;102555.03;5030896;28;20048;-45
2023/10/04 02:12:34;;;;;;;8.55;2.00;;;;;;;18.83;58.74;102559.38;5030905;28;20401;-44
2023/10/04 02:15:00;;;;;;;9.57;1.88;;;;;;;18.87;58.74;102560.28;5030988;28;20037;-44
2023/10/04 02:17:25;;;;;;;9.32;1.90;;;;;;;18.64;59.02;102568.94;5031158;28;20402;-42
2023/10/04 02:19:54;;;;;;;8.45;2.00;;;;;;;18.67;59.50;102570.69;5030905;28;20033;-47
2023/10/04 02:22:19;;;;;;;7.03;1.70;;;;;;;18.65;59.34;102567.19;5030871;28;20041;-45
2023/10/04 02:24:45;;;;;;;5.93;1.80;;;;;;;18.59;59.34;102564.50;5031132;28;20041;-44
2023/10/04 02:27:11;;;;;;;6.35;1.70;;;;;;;18.59;59.52;102567.16;5030351;28;20034;-44
2023/10/04 02:29:38;;;;;;;9.25;2.05;;;;;;;18.56;59.62;102575.03;5030917;28;20037;-43
2023/10/04 02:32:08;;;;;;;9.10;1.70;;;;;;;18.74;58.90;102577.81;5030356;28;20040;-46
2023/10/04 02:34:41;;;;;;;10.82;2.08;;;;;;;18.47;60.08;102583.75;5030959;28;20041;-44
2023/10/04 02:37:07;;;;;;;8.32;2.05;;;;;;;18.57;59.90;102590.91;5030629;28;20462;-46
2023/10/04 02:39:34;;;;;;;7.28;2.15;;;;;;;18.77;59.23;102584.88;5030797;28;20044;-46
2023/10/04 02:41:59;;;;;;;9.18;2.33;;;;;;;18.69;59.21;102581.28;5029882;28;20116;-45
2023/10/04 02:44:25;;;;;;;7.72;2.28;;;;;;;18.55;59.86;102587.34;5030616;28;20171;-43
2023/10/04 02:46:52;;;;;;;8.45;2.15;;;;;;;18.54;59.80;102585.53;5029778;28;20091;-45
2023/10/04 02:49:18;;;;;;;9.10;2.00;;;;;;;18.46;59.27;102586.38;5030563;28;20037;-44
2023/10/04 02:51:45;;;;;;;10.30;2.20;;;;;;;18.59;59.23;102589.16;5030438;28;20052;-46
2023/10/04 02:54:10;;;;;;;12.13;2.10;;;;;;;18.71;58.71;102590.13;5030166;28;20037;-43
2023/10/04 02:56:41;;;;;;;8.65;1.90;;;;;;;18.59;58.98;102591.81;5031712;28;20661;-47
2023/10/04 02:59:07;;;;;;;7.13;1.80;;;;;;;18.41;59.29;102599.53;5032050;28;20037;-44
2023/10/04 03:01:32;;;;;;;7.80;1.98;;;;;;;18.50;58.81;102590.78;5031188;28;20037;-43
2023/10/04 03:03:58;;;;;;;7.65;2.00;;;;;;;18.53;58.39;102591.72;5029975;28;20088;-45
2023/10/04 03:06:24;;;;;;;6.78;2.00;;;;;;;18.57;58.92;102597.94;5029691;28;20052;-44
2023/10/04 03:08:55;;;;;;;11.02;2.03;;;;;;;18.52;59.02;102594.34;5030038;28;20025;-47
2023/10/04 03:11:20;;;;;;;7.53;1.90;;;;;;;18.43;59.50;102589.84;5030551;28;20474;-44
2023/10/04 03:13:47;;;;;;;8.98;2.22;;;;;;;18.28;60.12;102592.38;5030400;28;20045;-44
2023/10/04 03:16:12;;;;;;;7.75;1.85;;;;;;;18.34;59.99;102583.63;5029694;28;20100;-47
2023/10/04 03:18:39;;;;;;;7.80;1.80;;;;;;;18.59;58.75;102586.53;5029933;28;20054;-44
2023/10/04 03:23:34;;;;;;;11.20;2.33;;;;;;;18.23;60.49;102579.16;5029987;28;20030;-44
2023/10/04 03:26:01;;;;;;;8.48;1.95;;;;;;;18.39;59.88;102574.88;5029698;28;20037;-45
2023/10/04 03:28:26;;;;;;;8.80;2.05;;;;;;;18.34;59.73;102578.34;5031039;28;20031;-45
2023/10/04 03:30:53;;;;;;;6.88;2.10;;;;;;;18.23;60.13;102567.72;5029498;28;20041;-46
2023/10/04 03:33:20;;;;;;;10.57;2.50;;;;;;;18.05;60.92;102576.31;5029648;28;20045;-45
2023/10/04 03:35:47;;;;;;;9.25;2.05;;;;;;;18.08;60.92;102581.63;5029937;28;20052;-45
2023/10/04 03:38:12;;;;;;;11.52;2.25;;;;;;;18.06;61.14;102583.38;5029628;28;20044;-44
2023/10/04 03:40:38;;;;;;;8.50;1.98;;;;;;;17.99;61.07;102584.16;5029787;28;20042;-44
2023/10/04 03:43:07;;;;;;;11.63;2.45;;;;;;;18.02;60.96;102594.78;5029622;28;20463;-44
2023/10/04 03:45:42;;;;;;;9.02;2.20;;;;;;;18.02;60.32;102584.22;5029924;28;20025;-43
2023/10/04 03:48:14;;;;;;;10.23;2.25;;;;;;;18.12;59.93;102578.16;5029328;28;20400;-42
2023/10/04 03:50:40;;;;;;;13.35;2.50;;;;;;;18.09;59.82;102582.53;5029923;28;20056;-44
2023/10/04 03:53:07;;;;;;;10.13;2.50;;;;;;;18.04;60.03;102577.22;5029080;28;20045;-45
2023/10/04 03:55:33;;;;;;;8.43;2.28;;;;;;;17.89;60.80;102569.13;5029896;28;20041;-44
2023/10/04 03:57:58;;;;;;;7.30;2.20;;;;;;;17.82;61.38;102569.91;5029184;28;20557;-44
2023/10/04 04:00:24;;;;;;;9.68;2.30;;;;;;;17.85;61.13;102569.97;5029577;28;20475;-45
2023/10/04 04:02:50;;;;;;;8.93;2.15;;;;;;;17.93;60.88;102570.91;5027904;28;20037;-47
2023/10/04 04:05:20;;;;;;;9.45;2.50;;;;;;;17.81;61.28;102561.13;5029088;28;20045;-47
2023/10/04 04:07:46;;;;;;;11.00;2.50;;;;;;;17.82;61.29;102560.25;5029380;28;20595;-46
2023/10/04 04:10:12;;;;;;;8.50;2.33;;;;;;;17.86;60.88;102557.66;5029123;28;20044;-43
2023/10/04 04:12:40;;;;;;;10.30;2.60;;;;;;;17.80;61.07;102551.47;5028935;28;20597;-45
2023/10/04 04:15:09;;;;;;;8.07;2.25;;;;;;;17.67;61.66;102536.38;5028891;28;20045;-46
2023/10/04 04:17:41;;;;;;;9.30;2.22;;;;;;;17.75;61.85;102537.31;5034933;28;20511;-51
2023/10/04 04:20:14;;;;;;;7.32;2.20;;;;;;;17.73;61.79;102539.06;5033156;28;20033;-45
2023/10/04 04:22:41;;;;;;;7.60;2.40;;;;;;;17.63;62.50;102546.84;5031877;28;20459;-44
2023/10/04 04:25:14;;;;;;;7.47;2.05;;;;;;;17.54;63.10;102552.00;5032915;28;20120;-44
2023/10/04 04:27:44;;;;;;;11.40;2.47;;;;;;;17.57;62.66;102560.81;5033090;28;20120;-44
2023/10/04 04:30:16;;;;;;;8.73;2.33;;;;;;;17.56;62.90;102566.09;5031451;28;20346;-45
2023/10/04 04:33:03;;;;;;;7.72;2.10;;;;;;;17.57;62.75;102563.47;5033148;28;20091;-44
2023/10/04 04:38:19;;;;;;;9.63;2.42;;;;;;;17.45;63.53;102585.28;5032747;28;20069;-44
2023/10/04 04:40:48;;;;;;;5.82;2.08;;;;;;;17.48;63.33;102586.22;5032859;28;20388;-44
2023/10/04 04:43:59;;;;;;;10.50;2.30;;;;;;;17.40;63.72;102591.38;5032558;28;20403;-47
2023/10/04 04:46:16;;;;;;;8.13;2.17;;;;;;;17.41;63.61;102585.25;5026609;28;20038;-42
2023/10/04 04:48:42;;;;;;;6.88;2.08;;;;;;;17.43;63.66;102581.78;5033052;28;20415;-45
2023/10/04 04:51:11;;;;;;;9.48;2.05;;;;;;;17.42;63.65;102584.38;5032391;28;20030;-46
2023/10/04 04:53:43;;;;;;;6.53;1.88;;;;;;;17.44;63.53;102580.88;5032548;28;20033;-44
2023/10/04 04:56:13;;;;;;;7.80;2.08;;;;;;;17.41;63.79;102588.78;5032326;28;20045;-44
2023/10/04 04:58:44;;;;;;;9.32;2.22;;;;;;;17.33;64.09;102592.16;5032637;28;20033;-43
2023/10/04 05:01:11;;;;;;;10.70;2.22;;;;;;;17.39;63.88;102597.50;5033201;28;20052;-48
2023/10/04 05:03:42;;;;;;;8.55;2.20;;;;;;;17.38;63.55;102595.78;5033836;28;20041;-47
2023/10/04 05:06:13;;;;;;;9.07;2.40;;;;;;;17.34;63.77;102596.56;5032665;28;20488;-44
2023/10/04 05:08:40;;;;;;;6.90;1.98;;;;;;;17.31;63.81;102601.81;5032760;28;20038;-45
2023/10/04 05:11:06;;;;;;;6.53;1.92;;;;;;;17.27;63.78;102610.53;5031851;28;20133;-44
2023/10/04 05:13:31;;;;;;;10.02;2.20;;;;;;;17.23;63.89;102611.38;5032377;28;20107;-44
2023/10/04 05:15:57;;;;;;;8.60;2.20;;;;;;;17.19;64.13;102618.38;5031532;28;20033;-45
2023/10/04 05:18:22;;;;;;;8.60;2.30;;;;;;;17.16;64.22;102613.03;5032293;28;20455;-46
2023/10/04 05:20:54;;;;;;;6.45;1.88;;;;;;;17.13;64.25;102610.38;5032378;28;20095;-42
2023/10/04 05:23:24;;;;;;;6.82;2.20;;;;;;;17.13;64.30;102622.66;5030501;28;20029;-47
2023/10/04 05:25:53;;;;;;;9.45;2.22;;;;;;;17.08;64.85;102616.44;5032160;28;20037;-43
2023/10/04 05:28:19;;;;;;;7.55;2.08;;;;;;;17.06;65.01;102615.53;5030995;28;20079;-44
2023/10/04 05:30:45;;;;;;;7.10;2.08;;;;;;;17.02;64.89;102623.38;5030457;28;20129;-44
2023/10/04 05:33:15;;;;;;;7.05;1.90;;;;;;;16.99;64.92;102618.06;5031189;28;20094;-39
2023/10/04 05:35:46;;;;;;;5.05;2.00;;;;;;;16.95;65.10;102623.28;5032027;28;20124;-46
2023/10/04 05:38:14;;;;;;;9.45;2.08;;;;;;;16.92;65.00;102617.94;5031207;28;20040;-45
2023/10/04 05:40:44;;;;;;;5.63;1.85;;;;;;;16.89;65.51;102618.81;5031727;28;20041;-44
2023/10/04 05:43:12;;;;;;;10.27;2.40;;;;;;;16.90;65.50;102622.31;5031342;28;20052;-45
2023/10/04 05:45:37;;;;;;;6.68;1.88;;;;;;;16.89;65.81;102631.09;5032066;28;20034;-44
2023/10/04 05:48:05;;;;;;;5.80;1.80;;;;;;;16.91;65.79;102634.63;5031480;28;20041;-44
2023/10/04 05:50:32;;;;;;;8.55;2.05;;;;;;;16.92;65.92;102626.75;5031673;28;20025;-45
2023/10/04 05:53:00;;;;;;;8.18;2.20;;;;;;;16.89;66.36;102623.19;5031465;28;20060;-44
2023/10/04 05:55:26;;;;;;;11.10;2.30;;;;;;;16.98;66.46;102629.47;5032256;28;20026;-45
2023/10/04 05:57:52;;;;;;;6.20;1.90;;;;;;;17.05;66.21;102630.44;5031685;28;20032;-43
2023/10/04 06:00:33;;;;;;;7.35;2.30;;;;;;;17.09;66.53;102634.00;5031564;28;20030;-45
2023/10/04 06:03:00;;;;;;;9.40;2.40;;;;;;;17.12;66.44;102631.44;5030772;28;20033;-45
2023/10/04 06:05:27;;;;;;;5.03;2.20;;;;;;;17.14;66.63;102633.19;5031628;28;20026;-44
2023/10/04 06:07:57;;;;;;;6.22;1.80;;;;;;;17.17;66.56;102642.91;5031035;28;20052;-44
2023/10/04 06:10:24;;;;;;;6.68;2.08;;;;;;;17.19;66.76;102636.81;5031594;28;20095;-46
2023/10/04 06:12:53;;;;;;;8.52;2.30;;;;;;;17.22;66.91;102633.31;5031425;28;20053;-44
2023/10/04 06:15:19;;;;;;;7.78;2.10;;;;;;;17.29;67.06;102638.69;5031418;28;20040;-45
2023/10/04 06:17:46;;;;;;;6.88;2.00;;;;;;;17.41;67.07;102645.88;5031245;28;20364;-47
2023/10/04 06:22:52;;;;;;;8.95;2.60;;;;;;;17.56;66.62;102638.19;5030718;28;20406;-44
2023/10/04 06:25:20;;;;;;;7.10;2.28;;;;;;;17.60;66.42;102639.09;5031212;28;20514;-43
2023/10/04 06:27:45;;;;;;;8.30;2.28;;;;;;;17.63;66.61;102641.78;5030992;28;20052;-46
2023/10/04 06:30:16;;;;;;;9.43;2.45;;;;;;;17.70;66.93;102646.28;5031081;28;20033;-43
2023/10/04 06:32:43;;;;;;;9.75;2.80;;;;;;;17.83;67.08;102648.22;5031521;28;20454;-46
2023/10/04 06:35:09;;;;;;;8.10;2.30;;;;;;;17.95;65.49;102640.44;5030752;28;20037;-45
2023/10/04 06:37:36;;;;;;;8.18;2.42;;;;;;;18.21;65.39;102641.59;5031046;28;20063;-46
2023/10/04 06:40:02;;;;;;;9.13;2.42;;;;;;;18.51;63.94;102643.63;5028711;28;20389;-46
2023/10/04 06:42:27;;;;;;;8.32;2.55;;;;;;;18.84;62.89;102647.47;5030503;28;20083;-45
2023/10/04 06:44:53;;;;;;;10.18;2.90;;;;;;;19.26;61.50;102653.03;5031274;28;20068;-45
2023/10/04 06:47:20;;;;;;;9.00;2.70;;;;;;;19.63;60.09;102648.84;5030971;28;20168;-44
2023/10/04 06:49:45;;;;;;;11.02;2.83;;;;;;;19.92;58.71;102638.34;5031233;28;20044;-47
2023/10/04 06:52:10;;;;;;;10.68;3.05;;;;;;;20.15;57.25;102649.88;5030515;28;20041;-42
2023/10/04 06:54:36;;;;;;;11.23;3.10;;;;;;;20.42;57.06;102654.38;5030946;28;20036;-45
2023/10/04 06:57:02;;;;;;;10.80;3.17;;;;;;;20.67;56.18;102655.28;5030174;28;20041;-45
2023/10/04 06:59:28;;;;;;;9.80;3.10;;;;;;;20.94;55.77;102654.34;5030459;28;20140;-43
2023/10/04 07:01:59;;;;;;;9.95;3.00;;;;;;;21.07;54.59;102656.13;5030893;28;20772;-44
2023/10/04 07:04:25;;;;;;;13.30;3.40;;;;;;;21.20;54.66;102657.00;5027367;28;20034;-43
2023/10/04 07:06:50;;;;;;;10.50;3.33;;;;;;;21.04;54.20;102670.25;5027117;28;20036;-44
2023/10/04 07:09:16;;;;;;;11.85;3.40;;;;;;;20.91;54.97;102672.94;5028288;28;20033;-46
2023/10/04 07:11:41;;;;;;;14.32;3.30;;;;;;;20.70;56.06;102668.50;5026428;28;20113;-43
2023/10/04 07:14:06;;;;;;;13.45;3.45;;;;;;;20.37;56.41;102665.84;5024777;28;20034;-48
2023/10/04 07:16:32;;;;;;;12.02;2.90;;;;;;;20.22;57.19;102659.59;5026483;28;20057;-43
2023/10/04 07:18:59;;;;;;;10.30;3.15;;;;;;;20.03;57.83;102668.38;5026414;28;20038;-48
2023/10/04 07:21:24;;;;;;;10.05;3.10;;;;;;;19.93;58.61;102666.59;5026646;28;20037;-49
2023/10/04 07:23:49;;;;;;;10.45;2.85;;;;;;;19.85;59.03;102663.03;5026528;28;20099;-43
2023/10/04 07:26:15;;;;;;;10.85;3.08;;;;;;;19.88;59.41;102665.72;5026088;28;20037;-45
2023/10/04 07:28:41;;;;;;;9.23;3.10;;;;;;;19.90;59.45;102665.69;5026407;28;20128;-47
2023/10/04 07:31:07;;;;;;;11.40;3.00;;;;;;;19.80;59.96;102665.69;5026014;28;20033;-47
2023/10/04 07:33:32;;;;;;;13.07;3.20;;;;;;;19.83;60.09;102670.06;5026262;28;20030;-46
2023/10/04 07:35:58;;;;;;;12.43;3.25;;;;;;;19.95;60.16;102666.59;5026130;28;20037;-43
2023/10/04 07:38:23;;;;;;;12.85;3.10;;;;;;;19.96;59.56;102669.25;5026500;28;20116;-48
2023/10/04 07:40:49;;;;;;;11.70;2.95;;;;;;;19.92;60.21;102671.88;5026078;28;20112;-46
2023/10/04 07:43:15;;;;;;;11.63;3.20;;;;;;;20.12;60.21;102676.38;5025533;28;20046;-47
2023/10/04 07:45:40;;;;;;;11.98;3.25;;;;;;;20.38;59.67;102683.50;5026308;28;20053;-45
2023/10/04 07:48:08;;;;;;;11.35;3.10;;;;;;;20.39;59.27;102685.25;5025662;28;20530;-47
2023/10/04 07:50:34;;;;;;;11.18;3.35;;;;;;;20.45;59.45;102688.81;5026139;28;20063;-46
2023/10/04 07:53:04;;;;;;;12.13;3.10;;;;;;;20.69;59.12;102700.31;5025560;28;20125;-45
2023/10/04 07:55:30;;;;;;;9.70;3.30;;;;;;;20.74;59.28;102696.78;5026040;28;20034;-44
2023/10/04 07:58:03;;;;;;;12.05;3.60;;;;;;;20.84;59.01;102700.34;5025580;28;20056;-43
2023/10/04 08:00:29;;;;;;;14.35;3.53;;;;;;;20.88;58.45;102702.09;5025692;28;20038;-45
2023/10/04 08:02:55;;;;;;;10.77;3.20;;;;;;;20.96;58.75;102695.91;5025139;28;20045;-44
2023/10/04 08:05:25;;;;;;;13.82;3.60;;;;;;;20.83;58.66;102703.84;5025747;28;20121;-49
2023/10/04 08:07:52;;;;;;;14.32;3.45;;;;;;;21.16;58.26;102703.00;5025933;28;20057;-45
2023/10/04 08:10:18;;;;;;;11.88;3.47;;;;;;;21.17;58.34;102699.44;5025479;28;20084;-44
2023/10/04 08:12:45;;;;;;;10.00;3.13;;;;;;;21.13;57.80;102709.16;5016203;28;20026;-43
2023/10/04 08:15:15;;;;;;;14.70;3.45;;;;;;;21.15;58.28;102710.06;5012029;28;20034;-46
2023/10/04 08:17:43;;;;;;;13.32;3.60;;;;;;;21.24;58.34;102709.16;5012270;28;20389;-46
2023/10/04 08:20:12;;;;;;;9.93;3.30;;;;;;;21.41;58.07;102702.94;5011917;28;20553;-45
2023/10/04 08:22:38;;;;;;;12.85;3.83;;;;;;;21.27;58.48;102709.16;5011942;28;20377;-46
2023/10/04 08:25:04;;;;;;;12.75;3.30;;;;;;;21.39;58.37;102706.50;5011885;28;20038;-46
2023/10/04 08:27:29;;;;;;;12.02;3.63;;;;;;;21.24;58.79;102703.84;5012102;28;20508;-44
2023/10/04 08:29:54;;;;;;;12.55;3.38;;;;;;;21.23;58.64;102702.97;5011620;28;20485;-44
2023/10/04 08:32:20;;;;;;;12.57;3.40;;;;;;;21.04;58.88;102702.06;5011930;28;20540;-44
2023/10/04 08:34:45;;;;;;;15.07;3.72;;;;;;;20.77;60.31;102712.69;5012062;28;20586;-45
2023/10/04 08:37:11;;;;;;;10.95;3.20;;;;;;;20.83;61.05;102707.41;5011294;28;20062;-43
2023/10/04 08:39:37;;;;;;;12.68;3.55;;;;;;;20.67;62.48;102708.28;5012004;28;20125;-43
2023/10/04 08:42:03;;;;;;;14.77;3.55;;;;;;;20.80;62.23;102702.06;5011726;28;20038;-43
2023/10/04 08:44:29;;;;;;;11.98;3.30;;;;;;;20.86;61.54;102701.22;5011904;28;20408;-43
2023/10/04 08:46:59;;;;;;;11.25;3.38;;;;;;;20.87;61.67;102710.91;5011301;28;20548;-44
2023/10/04 08:49:31;;;;;;;11.82;3.20;;;;;;;20.87;61.16;102702.97;5011718;28;20037;-45
2023/10/04 08:52:09;;;;;;;14.35;3.40;;;;;;;20.74;62.15;102706.53;5011270;28;20036;-48
2023/10/04 08:54:36;;;;;;;14.52;3.22;;;;;;;20.90;61.69;102711.81;5011755;28;20034;-46
2023/10/04 08:57:13;;;;;;;11.93;3.30;;;;;;;21.03;61.80;102708.28;5011147;28;20042;-44
2023/10/04 08:59:40;;;;;;;14.40;3.35;;;;;;;20.97;61.14;102702.09;5011671;28;20022;-45
2023/10/04 09:02:08;;;;;;;11.73;3.17;;;;;;;21.11;60.21;102700.28;5010925;28;20084;-51
2023/10/04 09:04:35;;;;;;;12.93;3.33;;;;;;;20.79;61.58;102703.00;5011496;28;20026;-47
2023/10/04 09:07:02;;;;;;;11.68;3.17;;;;;;;21.10;60.30;102711.81;5010773;28;20042;-48
2023/10/04 09:09:33;;;;;;;14.38;3.05;;;;;;;21.24;60.46;102702.09;5010919;28;20137;-44
2023/10/04 09:11:58;;;;;;;10.98;3.05;;;;;;;21.40;60.03;102697.66;5011193;28;20045;-44
2023/10/04 09:14:25;;;;;;;11.63;3.50;;;;;;;21.44;59.89;102691.44;5011380;28;20025;-43
2023/10/04 09:17:14;;;;;;;16.25;3.30;;;;;;;21.67;58.77;102694.88;5011289;28;20038;-43
2023/10/04 09:19:40;;;;;;;9.60;3.08;;;;;;;21.75;58.12;102690.44;5030913;28;20527;-43
2023/10/04 09:22:07;;;;;;;9.45;2.97;;;;;;;21.55;59.83;102704.66;5030739;28;20065;-43
2023/10/04 09:24:55;;;;;;;10.32;3.10;;;;;;;21.70;59.65;102709.94;5029787;28;20499;-42
2023/10/04 09:27:21;;;;;;;14.07;3.10;;;;;;;21.81;58.22;102714.31;5031454;23;20049;-77
2023/10/04 09:29:58;;;;;;;10.50;2.90;;;;;;;21.44;59.16;102713.53;5010652;28;20553;-75
2023/10/04 09:32:38;;;;;;;12.15;3.30;;;;;;;21.69;58.94;102706.41;5010912;28;20062;-76
2023/10/04 09:35:05;;;;;;;9.63;2.72;;;;;;;21.40;59.38;102717.09;5011415;28;20045;-75
2023/10/04 09:37:31;;;;;;;9.95;2.95;;;;;;;21.36;58.13;102714.44;5010854;28;20376;-76
2023/10/04 09:40:12;;;;;;;12.27;3.05;;;;;;;21.37;58.49;102709.13;5012714;28;20048;-76
2023/10/04 09:42:56;;;;;;;9.45;3.15;;;;;;;21.26;57.30;102704.75;5015979;28;20034;-75
2023/10/04 09:45:24;;;;;;;12.27;2.95;;;;;;;21.53;56.48;102709.97;5013492;28;20037;-75
2023/10/04 09:47:51;;;;;;;9.70;2.58;;;;;;;21.81;53.93;102703.69;5013737;28;20042;-74
2023/10/04 09:50:22;;;;;;;10.65;3.10;;;;;;;21.73;53.62;102704.59;5012274;28;20053;-74
2023/10/04 09:52:48;;;;;;;13.10;3.10;;;;;;;21.99;53.15;102709.84;5010903;28;20041;-76
2023/10/04 09:55:32;;;;;;;8.52;2.90;;;;;;;21.73;52.19;102692.22;5011307;28;20029;-75
2023/10/04 09:58:00;;;;;;;;;;;;;;;21.59;52.02;102701.97;5010205;28;20100;-76
2023/10/04 10:00:29;;;;;;;8.57;2.75;;;;;;;21.73;51.64;102697.53;5011912;28;20300;-75
2023/10/04 10:02:57;;;;;;;8.95;2.80;;;;;;;21.98;50.95;102697.44;5009243;28;20030;-76
2023/10/04 10:05:34;;;;;;;10.38;3.10;;;;;;;21.31;52.09;102706.50;5011562;28;20038;-76
2023/10/04 10:08:06;;;;;;;8.73;2.90;;;;;;;21.77;51.91;102701.91;5010556;28;20381;-76
2023/10/04 10:10:37;;;;;;;12.77;2.85;;;;;;;21.37;53.08;102710.91;5011856;28;20451;-75
2023/10/04 10:13:04;;;;;;;11.77;2.88;;;;;;;21.58;51.16;102697.59;5011899;28;20062;-75
2023/10/04 10:15:31;;;;;;;9.88;2.67;;;;;;;21.66;51.99;102703.72;5011043;28;20038;-75
2023/10/04 10:18:04;;;;;;;13.02;2.78;;;;;;;21.97;52.10;102706.31;5012012;28;20044;-75
2023/10/04 10:20:30;;;;;;;11.73;3.15;;;;;;;21.66;52.60;102705.50;5010640;28;20030;-75
2023/10/04 10:22:58;;;;;;;9.30;2.83;;;;;;;21.79;52.78;102701.91;5010967;28;20029;-76
2023/10/04 10:25:25;;;;;;;10.27;3.10;;;;;;;21.79;53.18;102702.81;5012555;28;20034;-77
2023/10/04 10:27:56;;;;;;;11.40;2.90;;;;;;;22.27;52.20;102696.38;5010320;28;20058;-77
2023/10/04 10:30:31;;;;;;;10.07;2.95;;;;;;;21.78;52.56;102695.72;5011293;28;20061;-75
2023/10/04 10:33:00;;;;;;;9.77;3.10;;;;;;;21.97;52.09;102683.28;5013791;28;20057;-77
2023/10/04 10:36:03;;;;;;;9.30;2.80;;;;;;;21.84;51.19;102690.38;5016072;28;20063;-75
2023/10/04 10:38:40;;;;;;;9.02;3.10;;;;;;;21.80;51.32;102683.34;5021286;28;20045;-76
2023/10/04 10:41:26;;;;;;;11.70;3.40;;;;;;;21.76;50.88;102684.25;5020114;28;20046;-75
2023/10/04 10:44:37;;;;;;;8.18;2.90;;;;;;;22.12;50.41;102690.28;5010228;28;20116;-76
2023/10/04 10:47:06;;;;;;;9.40;2.65;;;;;;;21.47;49.17;102683.44;5011223;28;20137;-76
2023/10/04 10:49:48;;;;;;;9.80;2.95;;;;;;;22.03;48.40;102674.41;5010540;28;20029;-76
2023/10/04 10:52:39;;;;;;;11.73;3.20;;;;;;;21.86;49.84;102680.66;5009363;28;20034;-76
2023/10/04 10:55:27;;;;;;;7.30;2.72;;;;;;;22.15;49.62;102683.19;5009701;28;20044;-76
2023/10/04 10:57:52;;;;;;;10.98;3.10;;;;;;;22.09;49.40;102677.91;5011528;28;20038;-76
2023/10/04 11:02:47;;;;;;;9.52;2.83;;;;;;;22.00;49.31;102682.41;5010984;28;20487;-76
2023/10/04 11:05:16;;;;;;;9.98;3.25;;;;;;;21.94;49.48;102685.06;5010006;28;20044;-75
2023/10/04 11:07:48;;;;;;;11.30;3.00;;;;;;;21.65;49.61;102691.34;5011449;28;20053;-76
2023/10/04 11:10:16;;;;;;;9.80;2.97;;;;;;;21.75;50.10;102687.78;5010739;28;20068;-77
2023/10/04 11:12:43;;;;;;;7.03;3.08;;;;;;;21.29;51.10;102697.66;5010643;28;20040;-76
2023/10/04 11:15:09;;;;;;;7.15;2.88;;;;;;;21.64;51.26;102684.31;5011259;28;20038;-75
2023/10/04 11:17:43;;;;;;;12.25;3.28;;;;;;;21.29;51.99;102699.41;5011145;28;20056;-75
2023/10/04 11:20:18;;;;;;;11.90;3.13;;;;;;;21.37;54.23;102703.84;5009409;28;20037;-77
2023/10/04 11:22:45;;;;;;;10.40;3.28;;;;;;;20.42;58.07;102694.13;5009045;28;20034;-76
2023/10/04 11:25:13;;;;;;;14.45;3.70;;;;;;;20.07;61.34;102701.03;5010142;28;20038;-76
2023/10/04 11:27:43;;;;;;;9.80;3.20;;;;;;;19.59;64.63;102707.91;5010671;28;20046;-74
2023/10/04 11:30:11;;;;;;;11.27;3.28;;;;;;;19.89;63.61;102699.22;5008968;28;20045;-75
2023/10/04 11:32:41;;;;;;;7.65;2.90;;;;;;;19.81;64.09;102701.84;5009127;28;20026;-77
2023/10/04 11:35:11;;;;;;;9.48;2.53;;;;;;;19.91;62.85;102699.22;5010631;28;20080;-75
2023/10/04 11:38:05;;;;;;;9.25;2.60;;;;;;;20.08;63.59;102692.22;5009172;28;20041;-76
2023/10/04 11:40:32;;;;;;;8.88;2.70;;;;;;;19.94;63.17;102691.31;5009596;28;20049;-75